sensor_id;sensor_type;location;lat;lon;timestamp;temperature;humidity
16958;DHT22;8595;52.542;11.974;2023-10-08T00:02:17;12.30;99.90
16958;DHT22;8595;52.542;11.974;2023-10-08T00:04:49;12.30;99.90
16958;DHT22;8595;52.542;11.974;2023-10-08T00:07:17;12.30;99.90
16958;DHT22;8595;52.542;11.974;2023-10-08T00:09:48;12.30;99.90
16958;DHT22;8595;52.542;11.974;2023-10-08T00:12:16;12.30;99.90
16958;DHT22;8595;52.542;11.974;2023-10-08T00:14:43;12.20;99.90
16958;DHT22;8595;52.542;11.974;2023-10-08T00:17:11;12.30;99.90
16958;DHT22;8595;52.542;11.974;2023-10-08T00:19:39;12.30;99.90
16958;DHT22;8595;52.542;11.974;2023-10-08T00:22:09;12.30;99.90
16958;DHT22;8595;52.542;11.974;2023-10-08T00:24:38;12.30;99.90
16958;DHT22;8595;52.542;11.974;2023-10-08T00:27:07;12.40;99.90
16958;DHT22;8595;52.542;11.974;2023-10-08T00:29:34;12.30;99.90
16958;DHT22;8595;52.542;11.974;2023-10-08T00:32:05;12.30;99.90
16958;DHT22;8595;52.542;11.974;2023-10-08T00:34:37;12.20;99.90
16958;DHT22;8595;52.542;11.974;2023-10-08T00:37:07;12.30;99.90
16958;DHT22;8595;52.542;11.974;2023-10-08T00:39:37;12.30;99.90
16958;DHT22;8595;52.542;11.974;2023-10-08T00:42:05;12.30;99.90
16958;DHT22;8595;52.542;11.974;2023-10-08T00:44:33;12.40;99.90
16958;DHT22;8595;52.542;11.974;2023-10-08T00:47:07;12.40;99.90
16958;DHT22;8595;52.542;11.974;2023-10-08T00:49:37;12.40;99.90
16958;DHT22;8595;52.542;11.974;2023-10-08T00:52:20;12.30;99.90
16958;DHT22;8595;52.542;11.974;2023-10-08T00:54:57;12.30;99.90
16958;DHT22;8595;52.542;11.974;2023-10-08T00:57:35;12.30;99.90
16958;DHT22;8595;52.542;11.974;2023-10-08T01:00:03;12.40;99.90
16958;DHT22;8595;52.542;11.974;2023-10-08T01:02:40;12.40;99.90
16958;DHT22;8595;52.542;11.974;2023-10-08T01:08:34;12.30;99.90
16958;DHT22;8595;52.542;11.974;2023-10-08T01:13:55;12.40;99.90
16958;DHT22;8595;52.542;11.974;2023-10-08T01:16:24;12.50;99.90
16958;DHT22;8595;52.542;11.974;2023-10-08T01:18:52;12.60;99.90
16958;DHT22;8595;52.542;11.974;2023-10-08T01:21:20;12.60;99.90
16958;DHT22;8595;52.542;11.974;2023-10-08T01:24:02;12.70;99.90
16958;DHT22;8595;52.542;11.974;2023-10-08T01:26:31;12.70;99.90
16958;DHT22;8595;52.542;11.974;2023-10-08T01:28:58;12.80;99.90
16958;DHT22;8595;52.542;11.974;2023-10-08T01:31:28;12.80;99.90
16958;DHT22;8595;52.542;11.974;2023-10-08T01:33:55;12.80;99.90
16958;DHT22;8595;52.542;11.974;2023-10-08T01:36:23;12.70;99.90
16958;DHT22;8595;52.542;11.974;2023-10-08T01:38:51;12.50;99.90
16958;DHT22;8595;52.542;11.974;2023-10-08T01:41:21;12.60;99.90
16958;DHT22;8595;52.542;11.974;2023-10-08T01:43:57;12.50;99.90
16958;DHT22;8595;52.542;11.974;2023-10-08T01:46:25;12.50;99.90
16958;DHT22;8595;52.542;11.974;2023-10-08T01:48:52;12.30;99.90
16958;DHT22;8595;52.542;11.974;2023-10-08T01:51:28;12.40;99.90
16958;DHT22;8595;52.542;11.974;2023-10-08T01:54:03;12.40;99.90
16958;DHT22;8595;52.542;11.974;2023-10-08T01:56:37;12.50;99.90
16958;DHT22;8595;52.542;11.974;2023-10-08T01:59:07;12.50;99.90
16958;DHT22;8595;52.542;11.974;2023-10-08T02:01:34;12.50;99.90
16958;DHT22;8595;52.542;11.974;2023-10-08T02:04:01;12.50;99.90
16958;DHT22;8595;52.542;11.974;2023-10-08T02:06:28;12.50;99.90
16958;DHT22;8595;52.542;11.974;2023-10-08T02:08:56;12.40;99.90
16958;DHT22;8595;52.542;11.974;2023-10-08T02:11:24;12.40;99.90
16958;DHT22;8595;52.542;11.974;2023-10-08T02:13:54;12.40;99.90
16958;DHT22;8595;52.542;11.974;2023-10-08T02:16:21;12.30;99.90
16958;DHT22;8595;52.542;11.974;2023-10-08T02:18:48;12.30;99.90
16958;DHT22;8595;52.542;11.974;2023-10-08T02:21:16;12.40;99.90
16958;DHT22;8595;52.542;11.974;2023-10-08T02:23:43;12.60;99.90
16958;DHT22;8595;52.542;11.974;2023-10-08T02:26:10;12.50;99.90
16958;DHT22;8595;52.542;11.974;2023-10-08T02:28:37;12.40;99.90
16958;DHT22;8595;52.542;11.974;2023-10-08T02:31:06;12.50;99.90
16958;DHT22;8595;52.542;11.974;2023-10-08T02:33:34;12.50;99.90
16958;DHT22;8595;52.542;11.974;2023-10-08T02:36:02;12.40;99.90
16958;DHT22;8595;52.542;11.974;2023-10-08T02:38:30;12.50;99.90
16958;DHT22;8595;52.542;11.974;2023-10-08T02:41:04;12.50;99.90
16958;DHT22;8595;52.542;11.974;2023-10-08T02:43:32;12.40;99.90
16958;DHT22;8595;52.542;11.974;2023-10-08T02:46:02;12.40;99.90
16958;DHT22;8595;52.542;11.974;2023-10-08T02:48:34;12.40;99.90
16958;DHT22;8595;52.542;11.974;2023-10-08T02:51:01;12.50;99.90
16958;DHT22;8595;52.542;11.974;2023-10-08T02:53:37;12.40;99.90
16958;DHT22;8595;52.542;11.974;2023-10-08T02:56:07;12.40;99.90
16958;DHT22;8595;52.542;11.974;2023-10-08T02:58:38;12.40;99.90
16958;DHT22;8595;52.542;11.974;2023-10-08T03:01:06;12.40;99.90
16958;DHT22;8595;52.542;11.974;2023-10-08T03:03:39;12.30;99.90
16958;DHT22;8595;52.542;11.974;2023-10-08T03:06:08;12.30;99.90
16958;DHT22;8595;52.542;11.974;2023-10-08T03:08:38;12.30;99.90
16958;DHT22;8595;52.542;11.974;2023-10-08T03:11:09;12.30;99.90
16958;DHT22;8595;52.542;11.974;2023-10-08T03:13:45;12.40;99.90
16958;DHT22;8595;52.542;11.974;2023-10-08T03:16:17;12.40;99.90
16958;DHT22;8595;52.542;11.974;2023-10-08T03:18:48;12.40;99.90
16958;DHT22;8595;52.542;11.974;2023-10-08T03:21:17;12.40;99.90
16958;DHT22;8595;52.542;11.974;2023-10-08T03:23:47;12.40;99.90
16958;DHT22;8595;52.542;11.974;2023-10-08T03:26:16;12.30;99.90
16958;DHT22;8595;52.542;11.974;2023-10-08T03:29:00;12.20;99.90
16958;DHT22;8595;52.542;11.974;2023-10-08T03:31:31;12.20;99.90
16958;DHT22;8595;52.542;11.974;2023-10-08T03:34:17;12.30;99.90
16958;DHT22;8595;52.542;11.974;2023-10-08T03:36:46;12.30;99.90
16958;DHT22;8595;52.542;11.974;2023-10-08T03:39:15;12.20;99.90
16958;DHT22;8595;52.542;11.974;2023-10-08T03:41:44;12.20;99.90
16958;DHT22;8595;52.542;11.974;2023-10-08T03:44:26;12.30;99.90
16958;DHT22;8595;52.542;11.974;2023-10-08T03:46:55;12.30;99.90
16958;DHT22;8595;52.542;11.974;2023-10-08T03:49:24;12.40;99.90
16958;DHT22;8595;52.542;11.974;2023-10-08T03:51:52;12.40;99.90
16958;DHT22;8595;52.542;11.974;2023-10-08T03:54:19;12.50;99.90
16958;DHT22;8595;52.542;11.974;2023-10-08T03:56:55;12.50;99.90
16958;DHT22;8595;52.542;11.974;2023-10-08T03:59:23;12.40;99.90
16958;DHT22;8595;52.542;11.974;2023-10-08T04:01:57;12.30;99.90
16958;DHT22;8595;52.542;11.974;2023-10-08T04:04:36;12.20;99.90
16958;DHT22;8595;52.542;11.974;2023-10-08T04:07:16;12.30;99.90
16958;DHT22;8595;52.542;11.974;2023-10-08T04:10:05;12.20;99.90
16958;DHT22;8595;52.542;11.974;2023-10-08T04:13:00;12.30;99.90
16958;DHT22;8595;52.542;11.974;2023-10-08T04:15:26;12.30;99.90
16958;DHT22;8595;52.542;11.974;2023-10-08T04:17:53;12.10;99.90
16958;DHT22;8595;52.542;11.974;2023-10-08T04:20:23;12.20;99.90
16958;DHT22;8595;52.542;11.974;2023-10-08T04:23:05;12.30;99.90
16958;DHT22;8595;52.542;11.974;2023-10-08T04:25:39;12.20;99.90
16958;DHT22;8595;52.542;11.974;2023-10-08T04:28:08;12.30;99.90
16958;DHT22;8595;52.542;11.974;2023-10-08T04:30:40;12.30;99.90
16958;DHT22;8595;52.542;11.974;2023-10-08T04:33:07;12.30;99.90
16958;DHT22;8595;52.542;11.974;2023-10-08T04:35:40;12.30;99.90
16958;DHT22;8595;52.542;11.974;2023-10-08T04:38:13;12.20;99.90
16958;DHT22;8595;52.542;11.974;2023-10-08T04:40:43;12.10;99.90
16958;DHT22;8595;52.542;11.974;2023-10-08T04:43:14;12.20;99.90
16958;DHT22;8595;52.542;11.974;2023-10-08T04:45:41;12.10;99.90
16958;DHT22;8595;52.542;11.974;2023-10-08T04:48:08;12.20;99.90
16958;DHT22;8595;52.542;11.974;2023-10-08T04:50:36;12.20;99.90
16958;DHT22;8595;52.542;11.974;2023-10-08T04:53:04;12.20;99.90
16958;DHT22;8595;52.542;11.974;2023-10-08T04:55:34;12.30;99.90
16958;DHT22;8595;52.542;11.974;2023-10-08T04:58:01;12.20;99.90
16958;DHT22;8595;52.542;11.974;2023-10-08T05:00:37;12.20;99.90
16958;DHT22;8595;52.542;11.974;2023-10-08T05:03:19;12.20;99.90
16958;DHT22;8595;52.542;11.974;2023-10-08T05:05:48;12.30;99.90
16958;DHT22;8595;52.542;11.974;2023-10-08T05:08:35;12.40;99.90
16958;DHT22;8595;52.542;11.974;2023-10-08T05:11:13;12.40;99.90
16958;DHT22;8595;52.542;11.974;2023-10-08T05:14:02;12.40;99.90
16958;DHT22;8595;52.542;11.974;2023-10-08T05:16:41;12.30;99.90
16958;DHT22;8595;52.542;11.974;2023-10-08T05:19:25;12.30;99.90
16958;DHT22;8595;52.542;11.974;2023-10-08T05:22:15;12.30;99.90
16958;DHT22;8595;52.542;11.974;2023-10-08T05:24:49;12.30;99.90
16958;DHT22;8595;52.542;11.974;2023-10-08T05:27:30;12.40;99.90
16958;DHT22;8595;52.542;11.974;2023-10-08T05:30:11;12.40;99.90
16958;DHT22;8595;52.542;11.974;2023-10-08T05:32:42;12.40;99.90
16958;DHT22;8595;52.542;11.974;2023-10-08T05:35:25;12.40;99.90
16958;DHT22;8595;52.542;11.974;2023-10-08T05:38:06;12.40;99.90
16958;DHT22;8595;52.542;11.974;2023-10-08T05:40:43;12.40;99.90
16958;DHT22;8595;52.542;11.974;2023-10-08T05:43:28;12.40;99.90
16958;DHT22;8595;52.542;11.974;2023-10-08T05:46:16;12.40;99.90
16958;DHT22;8595;52.542;11.974;2023-10-08T05:49:01;12.20;99.90
16958;DHT22;8595;52.542;11.974;2023-10-08T05:51:29;12.30;99.90
16958;DHT22;8595;52.542;11.974;2023-10-08T05:54:11;12.20;99.90
16958;DHT22;8595;52.542;11.974;2023-10-08T05:56:52;12.20;99.90
16958;DHT22;8595;52.542;11.974;2023-10-08T05:59:32;12.10;99.90
16958;DHT22;8595;52.542;11.974;2023-10-08T06:02:05;12.10;99.90
16958;DHT22;8595;52.542;11.974;2023-10-08T06:04:51;12.20;99.90
16958;DHT22;8595;52.542;11.974;2023-10-08T06:07:36;12.40;99.90
16958;DHT22;8595;52.542;11.974;2023-10-08T06:10:13;12.50;99.90
16958;DHT22;8595;52.542;11.974;2023-10-08T06:13:04;12.60;99.90
16958;DHT22;8595;52.542;11.974;2023-10-08T06:15:35;12.50;99.90
16958;DHT22;8595;52.542;11.974;2023-10-08T06:18:10;12.40;99.90
16958;DHT22;8595;52.542;11.974;2023-10-08T06:20:37;12.40;99.90
16958;DHT22;8595;52.542;11.974;2023-10-08T06:23:06;12.40;99.90
16958;DHT22;8595;52.542;11.974;2023-10-08T06:25:33;12.40;99.90
16958;DHT22;8595;52.542;11.974;2023-10-08T06:28:12;12.40;99.90
16958;DHT22;8595;52.542;11.974;2023-10-08T06:30:41;12.50;99.90
16958;DHT22;8595;52.542;11.974;2023-10-08T06:33:08;12.40;99.90
16958;DHT22;8595;52.542;11.974;2023-10-08T06:35:35;12.40;99.90
16958;DHT22;8595;52.542;11.974;2023-10-08T06:38:03;12.50;99.90
16958;DHT22;8595;52.542;11.974;2023-10-08T06:40:33;12.50;99.90
16958;DHT22;8595;52.542;11.974;2023-10-08T06:43:11;12.60;99.90
16958;DHT22;8595;52.542;11.974;2023-10-08T06:45:48;12.70;99.90
16958;DHT22;8595;52.542;11.974;2023-10-08T06:48:18;12.90;99.90
16958;DHT22;8595;52.542;11.974;2023-10-08T06:50:46;12.90;99.90
16958;DHT22;8595;52.542;11.974;2023-10-08T06:53:13;12.90;99.90
16958;DHT22;8595;52.542;11.974;2023-10-08T06:55:41;12.80;99.90
16958;DHT22;8595;52.542;11.974;2023-10-08T06:58:10;12.80;99.90
16958;DHT22;8595;52.542;11.974;2023-10-08T07:00:40;12.80;99.90
16958;DHT22;8595;52.542;11.974;2023-10-08T07:03:12;12.90;99.90
16958;DHT22;8595;52.542;11.974;2023-10-08T07:05:41;12.70;99.90
16958;DHT22;8595;52.542;11.974;2023-10-08T07:08:10;12.80;99.90
16958;DHT22;8595;52.542;11.974;2023-10-08T07:10:39;13.10;99.90
16958;DHT22;8595;52.542;11.974;2023-10-08T07:13:08;13.90;99.90
16958;DHT22;8595;52.542;11.974;2023-10-08T07:15:37;14.40;99.90
16958;DHT22;8595;52.542;11.974;2023-10-08T07:18:06;15.10;99.90
16958;DHT22;8595;52.542;11.974;2023-10-08T07:20:39;15.30;99.90
16958;DHT22;8595;52.542;11.974;2023-10-08T07:23:08;15.60;99.90
16958;DHT22;8595;52.542;11.974;2023-10-08T07:25:52;15.60;99.90
16958;DHT22;8595;52.542;11.974;2023-10-08T07:28:23;16.20;99.90
16958;DHT22;8595;52.542;11.974;2023-10-08T07:30:52;16.90;99.90
16958;DHT22;8595;52.542;11.974;2023-10-08T07:33:20;17.00;99.90
16958;DHT22;8595;52.542;11.974;2023-10-08T07:35:51;16.60;99.90
16958;DHT22;8595;52.542;11.974;2023-10-08T07:38:25;16.80;99.90
16958;DHT22;8595;52.542;11.974;2023-10-08T07:40:55;17.10;99.90
16958;DHT22;8595;52.542;11.974;2023-10-08T07:43:22;17.40;99.90
16958;DHT22;8595;52.542;11.974;2023-10-08T07:45:51;17.00;99.90
16958;DHT22;8595;52.542;11.974;2023-10-08T07:48:20;16.20;99.90
16958;DHT22;8595;52.542;11.974;2023-10-08T07:50:48;15.70;99.90
16958;DHT22;8595;52.542;11.974;2023-10-08T07:53:16;15.20;99.90
16958;DHT22;8595;52.542;11.974;2023-10-08T07:55:46;14.80;99.90
16958;DHT22;8595;52.542;11.974;2023-10-08T07:58:15;14.50;99.90
16958;DHT22;8595;52.542;11.974;2023-10-08T08:00:42;14.40;99.90
16958;DHT22;8595;52.542;11.974;2023-10-08T08:03:19;14.30;99.90
16958;DHT22;8595;52.542;11.974;2023-10-08T08:05:46;14.20;99.90
16958;DHT22;8595;52.542;11.974;2023-10-08T08:08:14;14.30;99.90
16958;DHT22;8595;52.542;11.974;2023-10-08T08:10:44;14.20;99.90
16958;DHT22;8595;52.542;11.974;2023-10-08T08:13:11;14.10;99.90
16958;DHT22;8595;52.542;11.974;2023-10-08T08:15:39;14.10;99.90
16958;DHT22;8595;52.542;11.974;2023-10-08T08:18:16;14.00;99.90
16958;DHT22;8595;52.542;11.974;2023-10-08T08:20:49;14.60;99.90
16958;DHT22;8595;52.542;11.974;2023-10-08T08:23:16;15.10;99.90
16958;DHT22;8595;52.542;11.974;2023-10-08T08:25:43;15.40;99.90
16958;DHT22;8595;52.542;11.974;2023-10-08T08:28:21;15.70;99.90
16958;DHT22;8595;52.542;11.974;2023-10-08T08:30:50;15.70;99.90
16958;DHT22;8595;52.542;11.974;2023-10-08T08:33:20;15.50;99.90
16958;DHT22;8595;52.542;11.974;2023-10-08T08:36:01;15.60;99.90
16958;DHT22;8595;52.542;11.974;2023-10-08T08:38:31;15.80;99.90
16958;DHT22;8595;52.542;11.974;2023-10-08T08:41:04;15.60;99.90
16958;DHT22;8595;52.542;11.974;2023-10-08T08:43:34;15.60;99.90
16958;DHT22;8595;52.542;11.974;2023-10-08T08:46:02;15.80;99.90
16958;DHT22;8595;52.542;11.974;2023-10-08T08:48:34;16.70;99.90
16958;DHT22;8595;52.542;11.974;2023-10-08T08:51:02;16.90;99.90
16958;DHT22;8595;52.542;11.974;2023-10-08T08:53:32;16.80;99.90
16958;DHT22;8595;52.542;11.974;2023-10-08T08:55:59;16.90;99.90
16958;DHT22;8595;52.542;11.974;2023-10-08T08:58:30;17.00;99.90
16958;DHT22;8595;52.542;11.974;2023-10-08T09:00:58;16.60;99.90
16958;DHT22;8595;52.542;11.974;2023-10-08T09:03:26;16.40;99.90
16958;DHT22;8595;52.542;11.974;2023-10-08T09:05:56;16.10;99.90
16958;DHT22;8595;52.542;11.974;2023-10-08T09:08:27;16.00;99.90
16958;DHT22;8595;52.542;11.974;2023-10-08T09:10:57;16.00;99.90
16958;DHT22;8595;52.542;11.974;2023-10-08T09:13:27;15.90;99.90
16958;DHT22;8595;52.542;11.974;2023-10-08T09:15:57;15.80;99.90
16958;DHT22;8595;52.542;11.974;2023-10-08T09:18:24;15.90;99.90
16958;DHT22;8595;52.542;11.974;2023-10-08T09:20:52;16.70;99.90
16958;DHT22;8595;52.542;11.974;2023-10-08T09:23:20;17.10;99.90
16958;DHT22;8595;52.542;11.974;2023-10-08T09:25:50;16.80;99.90
16958;DHT22;8595;52.542;11.974;2023-10-08T09:28:18;16.60;99.90
16958;DHT22;8595;52.542;11.974;2023-10-08T09:30:47;16.40;99.90
16958;DHT22;8595;52.542;11.974;2023-10-08T09:33:14;16.00;99.90
16958;DHT22;8595;52.542;11.974;2023-10-08T09:35:43;15.80;99.90
16958;DHT22;8595;52.542;11.974;2023-10-08T09:38:10;15.70;99.90
16958;DHT22;8595;52.542;11.974;2023-10-08T09:40:37;15.50;99.90
16958;DHT22;8595;52.542;11.974;2023-10-08T09:43:08;15.30;99.90
16958;DHT22;8595;52.542;11.974;2023-10-08T09:45:37;15.70;99.90
16958;DHT22;8595;52.542;11.974;2023-10-08T09:48:09;16.90;99.90
16958;DHT22;8595;52.542;11.974;2023-10-08T09:50:40;18.10;99.90
16958;DHT22;8595;52.542;11.974;2023-10-08T09:53:08;18.90;99.90
16958;DHT22;8595;52.542;11.974;2023-10-08T09:55:44;19.70;99.90
16958;DHT22;8595;52.542;11.974;2023-10-08T09:58:16;20.10;99.90
16958;DHT22;8595;52.542;11.974;2023-10-08T10:00:43;21.10;99.90
16958;DHT22;8595;52.542;11.974;2023-10-08T10:03:14;21.70;99.90
16958;DHT22;8595;52.542;11.974;2023-10-08T10:05:42;22.00;99.90
16958;DHT22;8595;52.542;11.974;2023-10-08T10:08:10;22.70;99.90
16958;DHT22;8595;52.542;11.974;2023-10-08T10:10:38;22.80;99.90
16958;DHT22;8595;52.542;11.974;2023-10-08T10:13:05;22.90;99.90
16958;DHT22;8595;52.542;11.974;2023-10-08T10:15:36;22.90;99.90
16958;DHT22;8595;52.542;11.974;2023-10-08T10:18:12;22.70;99.90
16958;DHT22;8595;52.542;11.974;2023-10-08T10:20:41;22.60;99.90
16958;DHT22;8595;52.542;11.974;2023-10-08T10:23:35;23.30;99.90
16958;DHT22;8595;52.542;11.974;2023-10-08T10:26:03;24.20;99.90
16958;DHT22;8595;52.542;11.974;2023-10-08T10:28:30;24.50;99.90
16958;DHT22;8595;52.542;11.974;2023-10-08T10:31:00;24.60;99.90
16958;DHT22;8595;52.542;11.974;2023-10-08T10:33:30;24.70;99.90
16958;DHT22;8595;52.542;11.974;2023-10-08T10:35:57;25.10;99.90
16958;DHT22;8595;52.542;11.974;2023-10-08T10:38:26;25.30;99.90
16958;DHT22;8595;52.542;11.974;2023-10-08T10:40:56;25.30;99.90
16958;DHT22;8595;52.542;11.974;2023-10-08T10:43:33;25.30;99.90
16958;DHT22;8595;52.542;11.974;2023-10-08T10:46:02;25.10;99.90
16958;DHT22;8595;52.542;11.974;2023-10-08T10:48:50;25.40;99.90
16958;DHT22;8595;52.542;11.974;2023-10-08T10:51:30;26.20;99.90
16958;DHT22;8595;52.542;11.974;2023-10-08T10:53:57;25.40;99.90
16958;DHT22;8595;52.542;11.974;2023-10-08T10:56:33;25.50;99.90
16958;DHT22;8595;52.542;11.974;2023-10-08T10:59:06;25.70;99.90
16958;DHT22;8595;52.542;11.974;2023-10-08T11:01:45;25.10;99.90
16958;DHT22;8595;52.542;11.974;2023-10-08T11:04:12;24.30;99.90
16958;DHT22;8595;52.542;11.974;2023-10-08T11:06:43;23.70;99.90
16958;DHT22;8595;52.542;11.974;2023-10-08T11:09:11;22.80;99.90
16958;DHT22;8595;52.542;11.974;2023-10-08T11:11:41;22.00;99.90
16958;DHT22;8595;52.542;11.974;2023-10-08T11:14:12;21.40;99.90
16958;DHT22;8595;52.542;11.974;2023-10-08T11:16:44;20.90;99.90
16958;DHT22;8595;52.542;11.974;2023-10-08T11:19:11;20.30;99.90
16958;DHT22;8595;52.542;11.974;2023-10-08T11:21:51;19.80;99.90
16958;DHT22;8595;52.542;11.974;2023-10-08T11:24:29;19.40;99.90
16958;DHT22;8595;52.542;11.974;2023-10-08T11:26:59;18.90;99.90
16958;DHT22;8595;52.542;11.974;2023-10-08T11:29:41;18.30;99.90
16958;DHT22;8595;52.542;11.974;2023-10-08T11:32:10;17.80;99.90
16958;DHT22;8595;52.542;11.974;2023-10-08T11:34:41;17.70;99.90
16958;DHT22;8595;52.542;11.974;2023-10-08T11:37:08;17.80;99.90
16958;DHT22;8595;52.542;11.974;2023-10-08T11:39:46;18.80;99.90
16958;DHT22;8595;52.542;11.974;2023-10-08T11:42:14;20.10;99.90
16958;DHT22;8595;52.542;11.974;2023-10-08T11:45:06;21.30;99.90
16958;DHT22;8595;52.542;11.974;2023-10-08T11:47:51;21.80;99.90
16958;DHT22;8595;52.542;11.974;2023-10-08T11:50:23;22.30;99.90
16958;DHT22;8595;52.542;11.974;2023-10-08T11:52:59;23.00;99.90
16958;DHT22;8595;52.542;11.974;2023-10-08T11:55:31;23.40;99.90
16958;DHT22;8595;52.542;11.974;2023-10-08T11:58:02;23.40;99.90
16958;DHT22;8595;52.542;11.974;2023-10-08T12:00:36;24.30;99.90
16958;DHT22;8595;52.542;11.974;2023-10-08T12:03:11;24.60;99.90
16958;DHT22;8595;52.542;11.974;2023-10-08T12:05:39;24.40;99.90
16958;DHT22;8595;52.542;11.974;2023-10-08T12:08:13;24.60;99.90
16958;DHT22;8595;52.542;11.974;2023-10-08T12:10:42;24.20;99.90
16958;DHT22;8595;52.542;11.974;2023-10-08T12:13:11;24.10;99.90
16958;DHT22;8595;52.542;11.974;2023-10-08T12:15:38;24.80;99.90
16958;DHT22;8595;52.542;11.974;2023-10-08T12:18:07;25.30;99.90
16958;DHT22;8595;52.542;11.974;2023-10-08T12:20:51;25.80;99.90
16958;DHT22;8595;52.542;11.974;2023-10-08T12:23:19;26.10;99.90
16958;DHT22;8595;52.542;11.974;2023-10-08T12:25:51;25.90;99.90
16958;DHT22;8595;52.542;11.974;2023-10-08T12:28:18;26.00;99.90
16958;DHT22;8595;52.542;11.974;2023-10-08T12:30:45;26.10;99.90
16958;DHT22;8595;52.542;11.974;2023-10-08T12:33:12;26.30;99.90
16958;DHT22;8595;52.542;11.974;2023-10-08T12:35:42;26.10;99.90
16958;DHT22;8595;52.542;11.974;2023-10-08T12:38:11;26.00;99.90
16958;DHT22;8595;52.542;11.974;2023-10-08T12:40:38;25.80;99.90
16958;DHT22;8595;52.542;11.974;2023-10-08T12:43:13;25.60;98.60
16958;DHT22;8595;52.542;11.974;2023-10-08T12:45:45;25.20;97.70
16958;DHT22;8595;52.542;11.974;2023-10-08T12:48:19;24.20;98.50
16958;DHT22;8595;52.542;11.974;2023-10-08T12:50:46;24.20;99.90
16958;DHT22;8595;52.542;11.974;2023-10-08T12:53:21;24.40;99.90
16958;DHT22;8595;52.542;11.974;2023-10-08T12:55:53;24.50;97.80
16958;DHT22;8595;52.542;11.974;2023-10-08T12:58:21;24.70;99.50
16958;DHT22;8595;52.542;11.974;2023-10-08T13:00:52;24.90;95.70
16958;DHT22;8595;52.542;11.974;2023-10-08T13:03:24;24.60;97.80
16958;DHT22;8595;52.542;11.974;2023-10-08T13:05:51;23.70;98.60
16958;DHT22;8595;52.542;11.974;2023-10-08T13:08:20;22.60;99.90
16958;DHT22;8595;52.542;11.974;2023-10-08T13:10:47;21.50;99.90
16958;DHT22;8595;52.542;11.974;2023-10-08T13:13:15;20.80;99.90
16958;DHT22;8595;52.542;11.974;2023-10-08T13:15:44;20.60;99.90
16958;DHT22;8595;52.542;11.974;2023-10-08T13:18:11;20.90;99.90
16958;DHT22;8595;52.542;11.974;2023-10-08T13:20:38;21.80;99.90
16958;DHT22;8595;52.542;11.974;2023-10-08T13:23:07;21.40;99.90
16958;DHT22;8595;52.542;11.974;2023-10-08T13:25:36;22.00;99.90
16958;DHT22;8595;52.542;11.974;2023-10-08T13:28:05;22.00;99.90
16958;DHT22;8595;52.542;11.974;2023-10-08T13:30:37;22.40;99.90
16958;DHT22;8595;52.542;11.974;2023-10-08T13:33:04;23.50;99.90
16958;DHT22;8595;52.542;11.974;2023-10-08T13:35:34;22.80;97.60
16958;DHT22;8595;52.542;11.974;2023-10-08T13:38:00;22.90;97.50
16958;DHT22;8595;52.542;11.974;2023-10-08T13:40:36;22.60;99.00
16958;DHT22;8595;52.542;11.974;2023-10-08T13:43:08;22.10;99.90
16958;DHT22;8595;52.542;11.974;2023-10-08T13:45:37;21.70;99.90
16958;DHT22;8595;52.542;11.974;2023-10-08T13:48:06;21.20;99.90
16958;DHT22;8595;52.542;11.974;2023-10-08T13:50:36;21.10;99.90
16958;DHT22;8595;52.542;11.974;2023-10-08T13:53:03;21.00;99.90
16958;DHT22;8595;52.542;11.974;2023-10-08T13:55:31;21.30;99.90
16958;DHT22;8595;52.542;11.974;2023-10-08T13:57:59;21.50;99.90
16958;DHT22;8595;52.542;11.974;2023-10-08T14:00:27;22.00;99.90
16958;DHT22;8595;52.542;11.974;2023-10-08T14:03:01;22.30;99.90
16958;DHT22;8595;52.542;11.974;2023-10-08T14:05:33;22.20;99.90
16958;DHT22;8595;52.542;11.974;2023-10-08T14:08:00;22.00;99.90
16958;DHT22;8595;52.542;11.974;2023-10-08T14:10:27;22.00;99.90
16958;DHT22;8595;52.542;11.974;2023-10-08T14:12:55;22.10;99.90
16958;DHT22;8595;52.542;11.974;2023-10-08T14:15:23;22.50;99.90
16958;DHT22;8595;52.542;11.974;2023-10-08T14:17:51;23.00;98.30
16958;DHT22;8595;52.542;11.974;2023-10-08T14:20:21;22.80;98.80
16958;DHT22;8595;52.542;11.974;2023-10-08T14:22:49;22.60;99.60
16958;DHT22;8595;52.542;11.974;2023-10-08T14:25:25;22.60;99.90
16958;DHT22;8595;52.542;11.974;2023-10-08T14:27:53;22.20;99.90
16958;DHT22;8595;52.542;11.974;2023-10-08T14:30:31;21.40;99.90
16958;DHT22;8595;52.542;11.974;2023-10-08T14:33:00;20.90;99.90
16958;DHT22;8595;52.542;11.974;2023-10-08T14:35:29;20.50;99.90
16958;DHT22;8595;52.542;11.974;2023-10-08T14:38:14;20.10;99.90
16958;DHT22;8595;52.542;11.974;2023-10-08T14:40:58;19.80;99.90
16958;DHT22;8595;52.542;11.974;2023-10-08T14:43:43;19.50;99.90
16958;DHT22;8595;52.542;11.974;2023-10-08T14:46:12;19.40;99.90
16958;DHT22;8595;52.542;11.974;2023-10-08T14:48:40;19.10;99.90
16958;DHT22;8595;52.542;11.974;2023-10-08T14:51:07;18.80;99.90
16958;DHT22;8595;52.542;11.974;2023-10-08T14:53:33;18.80;99.90
16958;DHT22;8595;52.542;11.974;2023-10-08T14:56:04;18.70;99.90
16958;DHT22;8595;52.542;11.974;2023-10-08T14:58:31;18.60;99.90
16958;DHT22;8595;52.542;11.974;2023-10-08T15:00:59;18.60;99.90
16958;DHT22;8595;52.542;11.974;2023-10-08T15:03:28;18.60;99.90
16958;DHT22;8595;52.542;11.974;2023-10-08T15:05:56;18.60;99.90
16958;DHT22;8595;52.542;11.974;2023-10-08T15:08:24;18.60;99.90
16958;DHT22;8595;52.542;11.974;2023-10-08T15:10:52;18.40;99.90
16958;DHT22;8595;52.542;11.974;2023-10-08T15:13:19;18.30;99.90
16958;DHT22;8595;52.542;11.974;2023-10-08T15:15:46;18.20;99.90
16958;DHT22;8595;52.542;11.974;2023-10-08T15:18:13;18.20;99.90
16958;DHT22;8595;52.542;11.974;2023-10-08T15:20:41;17.90;99.90
16958;DHT22;8595;52.542;11.974;2023-10-08T15:23:08;17.80;99.90
16958;DHT22;8595;52.542;11.974;2023-10-08T15:25:37;17.80;99.90
16958;DHT22;8595;52.542;11.974;2023-10-08T15:28:05;17.60;99.90
16958;DHT22;8595;52.542;11.974;2023-10-08T15:30:33;17.30;99.90
16958;DHT22;8595;52.542;11.974;2023-10-08T15:33:00;17.30;99.90
16958;DHT22;8595;52.542;11.974;2023-10-08T15:35:27;17.40;99.90
16958;DHT22;8595;52.542;11.974;2023-10-08T15:37:55;17.50;99.90
16958;DHT22;8595;52.542;11.974;2023-10-08T15:40:22;17.40;99.90
16958;DHT22;8595;52.542;11.974;2023-10-08T15:42:51;17.40;99.90
16958;DHT22;8595;52.542;11.974;2023-10-08T15:45:19;17.40;99.90
16958;DHT22;8595;52.542;11.974;2023-10-08T15:47:46;17.30;99.90
16958;DHT22;8595;52.542;11.974;2023-10-08T15:50:14;17.20;99.90
16958;DHT22;8595;52.542;11.974;2023-10-08T15:52:42;17.20;99.90
16958;DHT22;8595;52.542;11.974;2023-10-08T15:55:10;17.30;99.90
16958;DHT22;8595;52.542;11.974;2023-10-08T15:57:37;17.10;99.90
16958;DHT22;8595;52.542;11.974;2023-10-08T16:00:06;17.20;99.90
16958;DHT22;8595;52.542;11.974;2023-10-08T16:02:33;17.10;99.90